Time;durP1;ratioP1;P1;durP2;ratioP2;P2;SDS_P1;SDS_P2;PMS_P1;PMS_P2;Temp;Humidity;BMP_temperature;BMP_pressure;BME280_temperature;BME280_humidity;BME280_pressure;Samples;Min_cycle;Max_cycle;Signal;HPM_P1;HPM_P2
2022/10/26 00:01:03;;;;;;;7.32;6.70;;;;;;;18.16;79.34;100194.34;5051011;28;20052;-66
2022/10/26 00:03:32;;;;;;;10.18;7.25;;;;;;;18.16;79.23;100200.00;5050948;28;20048;-68
2022/10/26 00:06:19;;;;;;;7.45;6.50;;;;;;;18.11;78.82;100191.69;5050358;28;20633;-69
2022/10/26 00:08:47;;;;;;;11.90;6.32;;;;;;;18.27;78.71;100205.25;5046777;28;20048;-69
2022/10/26 00:11:14;;;;;;;11.07;6.30;;;;;;;18.31;78.58;100201.41;5055878;28;20139;-70
2022/10/26 00:13:44;;;;;;;7.30;6.65;;;;;;;18.32;78.44;100194.56;5047265;28;20052;-70
2022/10/26 00:16:23;;;;;;;12.23;7.07;;;;;;;18.37;77.96;100216.19;5042475;28;20044;-71
2022/10/26 00:18:51;;;;;;;10.88;8.18;;;;;;;18.41;78.11;100222.81;5048336;28;20131;-70
2022/10/26 00:21:18;;;;;;;12.55;7.13;;;;;;;18.49;77.68;100210.59;5054492;28;20057;-69
2022/10/26 00:23:45;;;;;;;7.60;6.70;;;;;;;18.49;77.68;100207.78;5047530;28;20419;-69
2022/10/26 00:26:12;;;;;;;7.63;6.90;;;;;;;18.47;77.48;100193.16;5054275;28;20057;-69
2022/10/26 00:28:39;;;;;;;7.28;6.78;;;;;;;18.48;77.43;100197.63;5058199;28;20048;-70
2022/10/26 00:31:11;;;;;;;11.60;7.18;;;;;;;18.54;77.58;100190.63;5045638;28;20053;-70
2022/10/26 00:33:37;;;;;;;10.48;6.22;;;;;;;18.53;77.44;100183.31;5048827;28;20053;-69
2022/10/26 00:36:04;;;;;;;12.65;7.45;;;;;;;18.57;77.14;100204.09;5049484;28;20400;-69
2022/10/26 00:38:31;;;;;;;9.35;7.57;;;;;;;18.55;77.10;100192.28;5049091;28;20057;-68
2022/10/26 00:40:58;;;;;;;15.57;9.13;;;;;;;18.60;77.08;100206.22;5047539;28;20496;-69
2022/10/26 00:43:26;;;;;;;7.85;7.10;;;;;;;18.60;77.07;100197.75;5053328;28;20499;-69
2022/10/26 00:45:56;;;;;;;7.50;6.75;;;;;;;18.61;77.26;100182.41;5047581;28;20060;-68
2022/10/26 00:48:27;;;;;;;10.38;7.25;;;;;;;18.64;76.82;100198.69;5050979;28;20056;-68
2022/10/26 00:50:57;;;;;;;7.30;6.60;;;;;;;18.60;76.86;100183.59;5047008;28;20068;-68
2022/10/26 00:53:25;;;;;;;14.00;7.20;;;;;;;18.63;77.03;100228.16;5049531;28;20056;-70
2022/10/26 00:55:53;;;;;;;10.63;7.50;;;;;;;18.72;76.67;100199.00;5051731;28;20053;-69
2022/10/26 00:58:21;;;;;;;16.67;7.60;;;;;;;18.72;76.65;100204.66;5052844;28;20052;-70
2022/10/26 01:00:50;;;;;;;7.60;6.00;;;;;;;18.65;76.70;100191.03;5045596;28;20064;-68
2022/10/26 01:03:18;;;;;;;9.65;6.90;;;;;;;18.65;76.77;100194.69;5048636;28;20046;-68
2022/10/26 01:05:47;;;;;;;9.32;8.05;;;;;;;18.57;76.75;100186.28;5051500;28;20091;-68
2022/10/26 01:08:15;;;;;;;11.43;7.20;;;;;;;18.62;76.72;100186.91;5040088;28;20061;-66
2022/10/26 01:10:43;;;;;;;9.32;6.70;;;;;;;18.60;76.58;100186.44;5047012;28;20411;-66
2022/10/26 01:13:11;;;;;;;8.55;6.68;;;;;;;18.55;76.85;100171.66;5046623;28;20068;-68
2022/10/26 01:15:47;;;;;;;7.35;6.85;;;;;;;18.54;76.69;100195.44;5048088;28;20575;-69
2022/10/26 01:18:51;;;;;;;7.88;6.93;;;;;;;18.36;77.11;100187.09;5047568;28;20064;-70
2022/10/26 01:21:20;;;;;;;15.60;7.53;;;;;;;18.50;77.16;100186.00;5029135;28;20053;-70
2022/10/26 01:24:03;;;;;;;10.15;6.50;;;;;;;18.46;77.06;100175.38;5051862;28;20439;-74
2022/10/26 01:26:42;;;;;;;7.60;6.90;;;;;;;18.51;77.27;100182.81;5050109;28;20044;-75
2022/10/26 01:29:37;;;;;;;8.05;6.90;;;;;;;18.53;76.80;100173.97;5048732;28;20428;-67
2022/10/26 01:32:10;;;;;;;6.70;6.10;;;;;;;18.61;76.50;100178.75;5060707;28;20079;-67
2022/10/26 01:34:46;;;;;;;7.57;6.65;;;;;;;18.58;76.75;100185.94;5047695;28;20063;-68
2022/10/26 01:37:29;;;;;;;10.48;6.82;;;;;;;18.59;76.84;100184.75;5043886;28;20048;-68
2022/10/26 01:40:08;;;;;;;12.93;6.90;;;;;;;18.56;77.04;100182.59;5047874;28;20045;-67
2022/10/26 01:42:41;;;;;;;11.70;7.18;;;;;;;18.59;77.00;100159.28;5044548;28;20079;-67
2022/10/26 01:45:10;;;;;;;7.60;6.57;;;;;;;18.55;77.06;100183.78;5045203;28;20495;-67
2022/10/26 01:47:38;;;;;;;12.20;7.38;;;;;;;18.54;76.84;100165.16;5045847;28;20048;-68
2022/10/26 01:50:07;;;;;;;9.05;6.60;;;;;;;18.57;76.80;100156.00;5048206;28;20488;-66
2022/10/26 01:52:33;;;;;;;8.05;7.30;;;;;;;18.51;76.76;100167.84;5048038;28;20060;-67
2022/10/26 01:55:35;;;;;;;7.35;6.75;;;;;;;18.45;77.00;100153.09;5046671;28;20049;-66
2022/10/26 01:58:28;;;;;;;7.35;6.68;;;;;;;18.49;76.79;100162.53;5047377;28;20516;-66
2022/10/26 02:01:31;;;;;;;7.53;6.90;;;;;;;18.48;76.71;100180.69;5044112;28;20409;-68
2022/10/26 02:04:17;;;;;;;8.02;6.90;;;;;;;18.51;76.85;100174.34;5043652;28;20045;-66
2022/10/26 02:07:00;;;;;;;9.18;6.30;;;;;;;18.51;76.93;100187.66;5036795;28;20133;-67
2022/10/26 02:10:09;;;;;;;14.30;7.40;;;;;;;18.40;76.82;100175.91;5057441;28;20048;-67
2022/10/26 02:12:41;;;;;;;7.00;6.22;;;;;;;18.43;77.07;100190.19;5037854;28;20049;-67
2022/10/26 02:15:16;;;;;;;8.18;6.78;;;;;;;18.34;77.11;100175.28;5034738;28;20054;-66
2022/10/26 02:17:46;;;;;;;10.73;6.57;;;;;;;18.44;76.95;100174.06;5050613;28;20048;-65
2022/10/26 02:20:20;;;;;;;10.18;7.50;;;;;;;18.47;76.86;100176.19;5048886;28;20088;-66
2022/10/26 02:22:50;;;;;;;8.38;6.68;;;;;;;18.46;76.66;100183.00;5053353;28;20044;-67
2022/10/26 02:25:27;;;;;;;7.93;7.15;;;;;;;18.36;76.75;100166.44;5050688;28;20487;-69
2022/10/26 02:27:59;;;;;;;9.90;7.47;;;;;;;18.46;76.52;100185.84;5054087;28;20483;-67
2022/10/26 02:30:26;;;;;;;8.20;7.45;;;;;;;18.48;76.66;100172.19;5053144;28;20056;-69
2022/10/26 02:32:55;;;;;;;13.07;7.80;;;;;;;18.42;76.54;100179.22;5048439;28;20041;-67
2022/10/26 02:35:27;;;;;;;7.10;6.50;;;;;;;18.40;76.97;100181.56;5047167;28;20056;-67
2022/10/26 02:37:58;;;;;;;8.65;7.82;;;;;;;18.46;76.87;100174.53;5041754;28;20060;-66
2022/10/26 02:40:27;;;;;;;9.00;7.30;;;;;;;18.39;76.50;100177.06;5051874;28;20056;-67
2022/10/26 02:42:59;;;;;;;6.93;6.25;;;;;;;18.37;76.90;100182.25;5048227;28;20454;-67
2022/10/26 02:45:32;;;;;;;12.20;8.40;;;;;;;18.35;76.37;100164.78;5051210;28;20052;-67
2022/10/26 02:47:59;;;;;;;13.25;7.97;;;;;;;18.33;76.63;100181.28;5043349;28;20448;-68
2022/10/26 02:50:43;;;;;;;9.88;8.25;;;;;;;18.31;76.59;100177.97;5046551;28;20041;-67
2022/10/26 02:53:25;;;;;;;11.60;7.32;;;;;;;18.27;76.69;100189.13;5052112;28;20049;-68
2022/10/26 02:55:51;;;;;;;8.15;7.13;;;;;;;18.31;76.99;100189.28;5050356;28;20408;-68
2022/10/26 02:58:24;;;;;;;8.63;7.70;;;;;;;18.24;76.77;100184.97;5051300;28;20052;-66
2022/10/26 03:00:52;;;;;;;9.30;7.78;;;;;;;18.30;76.94;100182.78;5051556;28;20036;-67
2022/10/26 03:03:20;;;;;;;7.85;7.05;;;;;;;18.29;77.04;100180.28;5049463;28;20060;-67
2022/10/26 03:05:46;;;;;;;7.53;6.93;;;;;;;18.36;76.89;100191.88;5044342;28;20065;-64
2022/10/26 03:08:13;;;;;;;9.43;7.82;;;;;;;18.34;76.47;100188.59;5045255;28;20052;-64
2022/10/26 03:10:43;;;;;;;11.43;7.63;;;;;;;18.37;76.54;100191.56;5054093;28;20041;-68
2022/10/26 03:13:11;;;;;;;8.60;7.80;;;;;;;18.45;76.57;100181.34;5048606;28;20057;-68
2022/10/26 03:15:38;;;;;;;8.07;7.25;;;;;;;18.41;76.54;100205.84;5049793;28;20065;-69
2022/10/26 03:18:06;;;;;;;7.72;7.00;;;;;;;18.46;76.75;100177.34;5044191;28;20049;-67
2022/10/26 03:20:32;;;;;;;17.05;7.50;;;;;;;18.48;76.70;100197.63;5049883;28;20068;-71
2022/10/26 03:22:59;;;;;;;11.73;7.20;;;;;;;18.45;76.56;100170.06;5047043;28;20049;-71
2022/10/26 03:25:26;;;;;;;9.77;8.75;;;;;;;18.42;76.63;100179.22;5048106;28;20045;-71
2022/10/26 03:27:58;;;;;;;8.23;7.22;;;;;;;18.43;76.43;100180.91;5051462;28;20050;-71
2022/10/26 03:30:25;;;;;;;12.85;7.22;;;;;;;18.42;76.71;100177.22;5051000;28;20518;-69
2022/10/26 03:32:52;;;;;;;7.57;6.93;;;;;;;18.37;76.71;100173.78;5035502;28;20404;-68
2022/10/26 03:35:19;;;;;;;7.03;6.32;;;;;;;18.41;76.77;100174.75;5045609;28;20049;-69
2022/10/26 03:37:45;;;;;;;8.60;7.53;;;;;;;18.39;76.46;100177.06;5068332;28;20052;-71
2022/10/26 03:40:13;;;;;;;9.55;7.10;;;;;;;18.38;76.70;100176.25;5050097;28;20049;-73
2022/10/26 03:42:40;;;;;;;10.65;8.02;;;;;;;18.43;76.84;100172.41;5051500;28;20057;-73
2022/10/26 03:45:08;;;;;;;7.50;6.82;;;;;;;18.39;76.50;100157.28;5050096;28;20054;-72
2022/10/26 03:47:45;;;;;;;7.32;6.63;;;;;;;18.42;76.82;100163.06;5053510;28;20052;-71
2022/10/26 03:50:13;;;;;;;9.43;6.57;;;;;;;18.43;76.49;100142.13;5052462;28;20048;-72
2022/10/26 03:52:40;;;;;;;10.07;7.03;;;;;;;18.45;76.21;100168.03;5049975;28;20050;-73
2022/10/26 03:55:08;;;;;;;8.65;6.88;;;;;;;18.41;76.50;100158.59;5044569;28;20519;-72
2022/10/26 03:57:40;;;;;;;10.23;6.82;;;;;;;18.37;76.53;100168.94;5052672;28;20053;-74
2022/10/26 04:00:09;;;;;;;8.50;7.13;;;;;;;18.33;76.60;100164.31;5050907;28;20056;-73
2022/10/26 04:02:35;;;;;;;7.18;6.55;;;;;;;18.37;76.56;100165.28;5048101;28;20048;-73
2022/10/26 04:05:03;;;;;;;8.75;6.38;;;;;;;18.13;77.33;100166.75;5048764;28;20057;-72
2022/10/26 04:07:29;;;;;;;9.98;7.25;;;;;;;17.90;78.07;100173.84;5043973;28;20047;-74
2022/10/26 04:09:56;;;;;;;11.35;7.88;;;;;;;17.78;79.04;100163.28;5054039;28;20048;-76
2022/10/26 04:12:23;;;;;;;17.80;7.60;;;;;;;17.60;79.93;100179.41;5055665;28;20049;-75
2022/10/26 04:14:50;;;;;;;7.60;6.90;;;;;;;17.52;80.43;100175.44;5058682;28;20049;-75
2022/10/26 04:17:16;;;;;;;7.72;6.97;;;;;;;17.52;80.38;100185.91;5052339;28;20126;-76
2022/10/26 04:19:43;;;;;;;9.65;7.15;;;;;;;17.50;81.01;100186.28;5048031;28;20063;-74
2022/10/26 04:22:11;;;;;;;9.55;8.00;;;;;;;17.49;81.23;100178.13;5050004;28;20051;-73
2022/10/26 04:24:38;;;;;;;8.57;7.57;;;;;;;17.48;80.95;100184.94;5049202;28;20416;-74
2022/10/26 04:27:05;;;;;;;9.52;7.80;;;;;;;17.39;80.87;100186.94;5051493;28;20060;-74
2022/10/26 04:29:31;;;;;;;9.32;7.57;;;;;;;17.37;81.57;100194.94;5043847;28;20053;-73
2022/10/26 04:31:58;;;;;;;11.27;7.20;;;;;;;17.24;82.01;100182.66;5047510;28;20053;-75
2022/10/26 04:34:25;;;;;;;9.38;7.25;;;;;;;17.16;82.16;100192.81;5058146;28;20057;-76
2022/10/26 04:36:52;;;;;;;12.00;7.70;;;;;;;17.06;82.64;100184.69;5063443;28;20052;-75
2022/10/26 04:39:18;;;;;;;8.77;7.97;;;;;;;17.00;82.52;100186.00;5047817;28;20056;-72
2022/10/26 04:41:45;;;;;;;9.10;6.65;;;;;;;17.00;82.70;100197.28;5046859;28;20045;-72
2022/10/26 04:44:12;;;;;;;8.05;6.90;;;;;;;17.01;82.84;100187.66;5048427;28;20480;-72
2022/10/26 04:46:39;;;;;;;8.75;7.60;;;;;;;17.04;82.30;100195.47;5037160;28;20045;-71
2022/10/26 04:49:05;;;;;;;9.05;6.78;;;;;;;16.91;82.59;100183.19;5048300;28;20066;-68
2022/10/26 04:51:32;;;;;;;10.05;7.10;;;;;;;16.93;83.06;100205.44;5046305;28;20045;-69
2022/10/26 04:53:59;;;;;;;8.57;7.78;;;;;;;16.81;83.49;100212.53;5048573;28;20053;-68
2022/10/26 04:56:26;;;;;;;7.78;7.03;;;;;;;16.72;83.80;100208.03;5048515;28;20049;-70
2022/10/26 04:58:53;;;;;;;7.90;7.10;;;;;;;16.75;83.57;100207.38;5046604;28;20045;-70
2022/10/26 05:01:20;;;;;;;8.70;7.63;;;;;;;16.66;83.54;100187.63;5050704;28;20048;-70
2022/10/26 05:03:51;;;;;;;12.40;9.02;;;;;;;16.81;83.46;100201.25;5042330;28;20048;-68
2022/10/26 05:06:19;;;;;;;10.00;9.13;;;;;;;16.76;83.48;100201.44;5050484;28;20048;-69
2022/10/26 05:08:46;;;;;;;10.68;9.88;;;;;;;16.79;83.87;100205.59;5051174;28;20056;-68
2022/10/26 05:11:13;;;;;;;11.02;10.02;;;;;;;16.78;83.67;100209.53;5049104;28;20041;-68
2022/10/26 05:13:40;;;;;;;10.88;9.57;;;;;;;16.88;83.64;100206.41;5049157;28;20055;-68
2022/10/26 05:16:07;;;;;;;11.10;10.02;;;;;;;16.87;83.77;100195.47;5041003;28;20059;-67
2022/10/26 05:18:34;;;;;;;12.52;9.90;;;;;;;16.94;83.77;100204.25;5049262;28;20427;-66
2022/10/26 05:21:01;;;;;;;15.85;11.15;;;;;;;16.96;83.82;100201.94;5047102;28;20559;-66
2022/10/26 05:23:27;;;;;;;12.32;11.35;;;;;;;16.91;83.69;100205.75;5045763;28;20423;-68
2022/10/26 05:25:55;;;;;;;13.73;12.40;;;;;;;16.88;83.93;100205.56;5046392;28;20048;-64
2022/10/26 05:28:22;;;;;;;14.45;12.50;;;;;;;16.85;84.32;100201.41;5050577;28;20392;-64
2022/10/26 05:30:49;;;;;;;14.95;13.60;;;;;;;16.83;84.54;100205.75;5048274;28;20049;-64
2022/10/26 05:33:16;;;;;;;14.70;13.45;;;;;;;16.86;84.54;100202.28;5049213;28;20049;-64
2022/10/26 05:35:43;;;;;;;14.50;12.95;;;;;;;16.83;84.90;100206.59;5041501;28;20044;-64
2022/10/26 05:38:13;;;;;;;14.20;12.38;;;;;;;16.81;85.14;100203.25;5052034;28;20056;-64
2022/10/26 05:40:47;;;;;;;15.02;13.38;;;;;;;16.81;85.47;100200.44;5047311;28;20086;-64
2022/10/26 05:43:14;;;;;;;13.70;12.35;;;;;;;16.88;85.55;100219.69;5051241;28;20060;-65
2022/10/26 05:45:41;;;;;;;13.10;11.98;;;;;;;16.87;85.96;100218.03;5048408;28;20049;-65
2022/10/26 05:48:08;;;;;;;19.58;13.30;;;;;;;16.79;85.86;100230.97;5045778;28;20052;-68
2022/10/26 05:50:35;;;;;;;16.48;14.70;;;;;;;16.76;86.47;100226.00;5047094;28;20037;-70
2022/10/26 05:53:02;;;;;;;16.55;15.02;;;;;;;16.75;86.66;100227.13;5041847;28;20059;-68
2022/10/26 05:55:29;;;;;;;17.10;15.55;;;;;;;16.73;86.74;100221.81;5050927;28;20052;-70
2022/10/26 05:57:57;;;;;;;17.58;15.95;;;;;;;16.84;87.30;100219.50;5041072;28;20515;-66
2022/10/26 06:00:26;;;;;;;16.77;15.70;;;;;;;16.80;86.95;100205.25;5042167;28;20049;-71
2022/10/26 06:03:21;;;;;;;18.38;14.60;;;;;;;16.80;87.28;100222.16;5044054;28;20052;-70
2022/10/26 06:05:54;;;;;;;15.80;14.07;;;;;;;16.79;87.38;100209.25;5031169;28;20707;-71
2022/10/26 06:08:23;;;;;;;19.58;17.80;;;;;;;16.81;87.22;100220.16;5047726;28;20510;-68
2022/10/26 06:10:51;;;;;;;20.33;18.67;;;;;;;16.72;87.94;100208.88;5042176;28;20154;-64
2022/10/26 06:13:18;;;;;;;15.73;14.32;;;;;;;16.67;87.69;100217.47;5048354;28;20504;-67
2022/10/26 06:16:11;;;;;;;16.70;14.90;;;;;;;16.56;87.98;100207.69;5045723;28;20060;-67
2022/10/26 06:19:12;;;;;;;16.60;15.00;;;;;;;16.47;88.52;100198.38;5032928;28;20056;-65
2022/10/26 06:21:48;;;;;;;14.23;13.13;;;;;;;16.57;88.79;100217.78;5044551;28;20511;-66
2022/10/26 06:24:27;;;;;;;13.98;12.85;;;;;;;16.50;88.43;100209.00;5043200;28;20064;-67
2022/10/26 06:26:56;;;;;;;20.73;12.60;;;;;;;16.58;88.53;100203.38;5046937;28;20079;-66
2022/10/26 06:29:49;;;;;;;24.92;13.93;;;;;;;16.58;88.48;100214.66;5046579;28;20049;-67
2022/10/26 06:32:16;;;;;;;12.80;11.65;;;;;;;16.64;88.56;100223.75;5049552;28;20064;-67
2022/10/26 06:34:47;;;;;;;11.45;10.32;;;;;;;16.68;88.17;100224.75;5043365;28;20411;-67
2022/10/26 06:37:15;;;;;;;9.30;8.70;;;;;;;16.68;87.97;100207.84;5046515;28;20071;-66
2022/10/26 06:39:48;;;;;;;10.55;9.65;;;;;;;16.77;87.62;100222.81;5049250;28;20049;-66
2022/10/26 06:42:20;;;;;;;12.10;10.48;;;;;;;16.83;87.46;100225.50;5041874;28;20712;-66
2022/10/26 06:44:47;;;;;;;10.48;9.68;;;;;;;16.78;87.46;100213.19;5042286;28;20041;-66
2022/10/26 06:47:30;;;;;;;11.10;9.30;;;;;;;16.90;86.86;100221.00;5046621;28;20064;-66
2022/10/26 06:50:10;;;;;;;11.32;8.55;;;;;;;16.91;86.87;100238.75;5048797;28;20415;-66
2022/10/26 06:52:42;;;;;;;20.55;10.25;;;;;;;16.93;86.51;100225.16;5046362;28;20064;-67
2022/10/26 06:55:14;;;;;;;15.25;11.68;;;;;;;16.97;86.56;100231.81;5043364;28;20503;-67
2022/10/26 06:57:42;;;;;;;10.27;9.32;;;;;;;16.98;86.31;100228.63;5035194;28;20053;-67
2022/10/26 07:00:20;;;;;;;12.07;9.80;;;;;;;16.97;86.00;100229.81;5042223;28;20484;-66
2022/10/26 07:02:48;;;;;;;13.45;8.73;;;;;;;17.04;86.07;100237.78;5039309;28;20068;-66
2022/10/26 07:05:16;;;;;;;11.25;8.88;;;;;;;17.10;85.88;100232.81;5042625;28;20065;-67
2022/10/26 07:07:45;;;;;;;8.13;7.57;;;;;;;17.11;85.78;100231.63;5043102;28;20056;-66
2022/10/26 07:10:14;;;;;;;9.98;8.30;;;;;;;17.13;85.54;100243.41;5050954;28;20107;-67
2022/10/26 07:12:41;;;;;;;12.07;8.27;;;;;;;17.11;85.50;100260.69;5053258;28;20053;-66
2022/10/26 07:15:08;;;;;;;8.27;7.45;;;;;;;17.18;85.32;100244.06;5048843;28;20049;-65
2022/10/26 07:17:47;;;;;;;14.35;8.98;;;;;;;17.29;84.85;100248.22;5049046;28;20057;-67
2022/10/26 07:20:20;;;;;;;10.20;9.23;;;;;;;17.36;84.43;100264.63;5046326;28;20059;-66
2022/10/26 07:22:56;;;;;;;10.85;9.82;;;;;;;17.38;84.33;100258.69;5046656;28;20044;-67
2022/10/26 07:25:24;;;;;;;10.70;7.68;;;;;;;17.34;84.26;100252.03;5042994;28;20056;-66
2022/10/26 07:27:55;;;;;;;8.73;8.05;;;;;;;17.42;84.04;100274.59;5047825;28;20483;-65
2022/10/26 07:30:22;;;;;;;11.57;7.90;;;;;;;17.47;84.15;100267.94;5051023;28;20049;-67
2022/10/26 07:32:49;;;;;;;7.63;7.22;;;;;;;17.50;84.06;100273.78;5048702;28;20474;-67
2022/10/26 07:35:16;;;;;;;13.05;8.15;;;;;;;17.58;83.65;100263.63;5047710;28;20049;-66
2022/10/26 07:37:43;;;;;;;8.00;7.40;;;;;;;17.59;83.18;100279.41;5050427;28;20049;-65
2022/10/26 07:40:10;;;;;;;14.68;8.15;;;;;;;17.67;83.14;100272.91;5047680;28;20041;-66
2022/10/26 07:42:37;;;;;;;8.98;8.27;;;;;;;17.76;83.05;100287.06;5048352;28;20065;-66
2022/10/26 07:45:04;;;;;;;10.82;9.25;;;;;;;17.81;82.88;100284.06;5050270;28;20060;-66
2022/10/26 07:47:31;;;;;;;13.77;9.10;;;;;;;17.88;82.80;100294.81;5049113;28;20053;-66
2022/10/26 07:49:57;;;;;;;8.38;7.63;;;;;;;18.27;82.46;100282.41;5045745;28;20053;-63
2022/10/26 07:52:24;;;;;;;8.23;6.93;;;;;;;18.63;82.00;100281.91;5046720;28;20465;-63
2022/10/26 07:54:51;;;;;;;13.82;9.98;;;;;;;18.98;81.31;100281.72;5039524;28;20053;-63
2022/10/26 07:57:18;;;;;;;8.13;7.35;;;;;;;19.16;80.24;100279.56;5046482;28;20049;-63
2022/10/26 07:59:45;;;;;;;9.85;7.68;;;;;;;19.38;79.94;100279.22;5042271;28;20049;-63
2022/10/26 08:02:11;;;;;;;8.55;8.00;;;;;;;19.31;78.47;100272.44;5044838;28;20067;-63
2022/10/26 08:04:38;;;;;;;9.40;6.78;;;;;;;18.96;78.67;100271.91;5047669;28;20090;-63
2022/10/26 08:07:05;;;;;;;8.48;7.60;;;;;;;19.00;78.63;100287.84;5049522;28;20045;-64
2022/10/26 08:09:32;;;;;;;8.82;7.93;;;;;;;19.06;78.51;100294.13;5042275;28;20060;-64
2022/10/26 08:11:59;;;;;;;8.07;6.72;;;;;;;19.03;77.76;100292.81;5044040;28;20049;-64
2022/10/26 08:14:25;;;;;;;7.53;7.00;;;;;;;19.01;77.52;100285.81;5044524;28;20051;-64
2022/10/26 08:16:52;;;;;;;7.97;7.32;;;;;;;18.93;77.44;100284.72;5046037;28;20049;-63
2022/10/26 08:19:19;;;;;;;10.70;7.32;;;;;;;18.97;76.74;100285.69;5043360;28;20087;-62
2022/10/26 08:21:46;;;;;;;7.97;7.30;;;;;;;19.18;77.14;100300.69;5038067;28;20419;-62
2022/10/26 08:24:13;;;;;;;8.55;7.63;;;;;;;19.33;76.52;100298.41;5043697;28;20065;-64
2022/10/26 08:26:40;;;;;;;10.68;7.57;;;;;;;19.50;76.20;100303.09;5043740;28;20143;-63
2022/10/26 08:29:07;;;;;;;7.40;6.68;;;;;;;19.54;75.49;100321.06;5044140;28;20061;-63
2022/10/26 08:31:34;;;;;;;9.05;7.05;;;;;;;19.71;75.10;100322.94;5045553;28;20040;-63
2022/10/26 08:34:02;;;;;;;11.55;8.25;;;;;;;19.90;74.92;100317.59;5046981;28;20400;-63
2022/10/26 08:36:29;;;;;;;8.73;6.90;;;;;;;20.15;74.10;100309.13;5041039;28;20049;-63
2022/10/26 08:38:56;;;;;;;11.82;7.93;;;;;;;20.34;73.30;100298.91;5049804;28;20076;-63
2022/10/26 08:41:41;;;;;;;8.75;7.60;;;;;;;20.65;72.36;100302.34;5044184;28;20049;-65
2022/10/26 08:44:26;;;;;;;8.23;7.43;;;;;;;20.91;71.78;100297.13;5054517;28;20067;-63
2022/10/26 08:46:59;;;;;;;8.07;7.30;;;;;;;21.14;71.18;100288.94;5056817;28;20046;-63
2022/10/26 08:49:31;;;;;;;8.35;7.78;;;;;;;21.42;70.44;100303.22;5046183;28;20049;-64
2022/10/26 08:52:01;;;;;;;8.55;7.70;;;;;;;21.65;69.00;100303.47;5050524;28;20045;-65
2022/10/26 08:54:33;;;;;;;;;;;;;;;21.68;68.67;100308.44;5043439;28;20049;-63
2022/10/26 08:57:10;;;;;;;10.18;9.52;;;;;;;21.81;67.17;100303.50;5056722;28;19929;-64
2022/10/26 08:59:48;;;;;;;9.15;8.10;;;;;;;21.85;67.04;100304.47;5041220;28;20507;-64
2022/10/26 09:02:16;;;;;;;8.57;7.97;;;;;;;22.18;66.51;100317.56;5043093;28;20053;-63
2022/10/26 09:04:44;;;;;;;8.60;7.80;;;;;;;22.11;65.56;100312.47;5044417;28;20048;-66
2022/10/26 09:07:40;;;;;;;8.02;7.15;;;;;;;22.39;64.78;100314.47;5046143;28;20384;-67
2022/10/26 09:10:28;;;;;;;13.20;7.47;;;;;;;22.55;63.37;100308.78;5044829;28;20080;-63
2022/10/26 09:13:09;;;;;;;9.13;7.60;;;;;;;22.62;63.25;100311.81;5046790;28;20467;-64
2022/10/26 09:16:01;;;;;;;7.47;6.88;;;;;;;22.70;62.92;100316.47;5042534;28;20049;-63
2022/10/26 09:19:12;;;;;;;8.93;7.65;;;;;;;22.76;62.97;100325.56;5041882;28;20518;-63
2022/10/26 09:21:50;;;;;;;9.95;9.10;;;;;;;22.75;61.73;100324.75;5046699;28;20523;-64
2022/10/26 09:24:53;;;;;;;9.48;8.63;;;;;;;22.93;62.01;100316.66;5041273;28;20052;-63
2022/10/26 09:27:29;;;;;;;7.90;7.25;;;;;;;22.93;60.44;100342.28;5041051;28;21931;-63
2022/10/26 09:29:58;;;;;;;7.85;7.25;;;;;;;22.51;60.12;100308.69;5040629;28;20482;-63
2022/10/26 09:32:29;;;;;;;;;;;;;;;22.07;61.03;100339.16;5047923;28;20045;-64
2022/10/26 09:35:01;;;;;;;8.68;7.28;;;;;;;21.92;61.72;100324.56;5048874;28;20289;-64
2022/10/26 09:37:39;;;;;;;9.32;8.50;;;;;;;22.23;61.13;100328.69;5045693;28;20049;-64
2022/10/26 09:40:54;;;;;;;8.02;7.53;;;;;;;23.08;61.41;100332.91;5043630;28;20450;-64
2022/10/26 09:43:44;;;;;;;10.48;8.35;;;;;;;24.02;57.87;100336.59;5039175;28;20060;-65
2022/10/26 09:46:17;;;;;;;7.72;7.10;;;;;;;23.93;56.83;100323.75;5052368;28;20053;-63
2022/10/26 09:48:52;;;;;;;8.48;7.70;;;;;;;24.20;56.99;100334.06;5045997;28;20045;-64
2022/10/26 09:51:19;;;;;;;8.40;7.68;;;;;;;24.38;56.27;100353.59;5044058;28;20041;-64
2022/10/26 09:53:47;;;;;;;10.00;9.02;;;;;;;24.36;56.06;100340.50;5060898;28;20436;-65
2022/10/26 09:56:16;;;;;;;9.85;9.32;;;;;;;24.35;55.77;100316.03;5034627;28;20700;-64
2022/10/26 09:58:52;;;;;;;8.77;7.93;;;;;;;24.20;55.10;100331.22;5041872;28;20053;-64
2022/10/26 10:01:35;;;;;;;9.13;7.88;;;;;;;24.25;56.09;100327.25;5043534;28;20412;-63
2022/10/26 10:04:19;;;;;;;9.25;8.35;;;;;;;24.19;54.93;100335.28;5049853;28;20419;-64
2022/10/26 10:07:12;;;;;;;7.90;6.97;;;;;;;23.65;55.57;100319.91;5046321;28;20061;-63
2022/10/26 10:09:39;;;;;;;8.50;7.80;;;;;;;23.17;57.21;100316.41;5045397;28;20065;-64
2022/10/26 10:12:18;;;;;;;8.02;7.22;;;;;;;23.29;57.92;100326.88;5044778;28;20041;-64
2022/10/26 10:14:58;;;;;;;8.75;7.90;;;;;;;23.18;57.97;100314.44;5045552;28;20057;-63
2022/10/26 10:17:25;;;;;;;7.53;7.03;;;;;;;23.08;58.34;100297.91;5041255;28;20511;-63
2022/10/26 10:19:52;;;;;;;7.88;7.32;;;;;;;22.70;58.79;100322.16;5044153;28;20056;-64
2022/10/26 10:22:24;;;;;;;9.25;7.53;;;;;;;22.31;59.82;100347.59;5051664;28;20408;-64
2022/10/26 10:24:56;;;;;;;10.75;9.95;;;;;;;21.95;60.82;100325.88;5056834;28;20060;-63
2022/10/26 10:27:24;;;;;;;14.50;8.65;;;;;;;21.71;61.30;100343.84;5050271;28;21100;-64
2022/10/26 10:29:56;;;;;;;7.93;7.43;;;;;;;21.53;62.27;100337.63;5046748;28;20076;-64
2022/10/26 10:32:31;;;;;;;9.25;8.20;;;;;;;21.47;62.67;100333.38;5048122;28;20041;-64
2022/10/26 10:35:22;;;;;;;10.38;8.82;;;;;;;21.42;62.82;100348.66;5042257;28;20471;-63
2022/10/26 10:37:51;;;;;;;9.38;8.77;;;;;;;21.39;62.96;100323.81;5049164;28;20053;-64
2022/10/26 10:40:26;;;;;;;9.02;8.38;;;;;;;21.17;63.35;100330.00;5045954;28;20049;-64
2022/10/26 10:43:05;;;;;;;8.05;7.40;;;;;;;21.12;63.81;100311.19;5044642;28;20045;-63
2022/10/26 10:45:34;;;;;;;9.52;7.97;;;;;;;21.24;64.07;100316.03;5037654;28;20140;-64
2022/10/26 10:48:17;;;;;;;8.95;8.18;;;;;;;21.33;64.08;100298.81;5041727;28;20057;-64
2022/10/26 10:50:54;;;;;;;10.25;8.18;;;;;;;21.38;64.16;100322.16;5046411;28;20447;-64
2022/10/26 10:53:36;;;;;;;9.07;8.38;;;;;;;21.43;64.25;100315.38;5049458;28;20044;-64
2022/10/26 10:56:41;;;;;;;10.60;8.13;;;;;;;21.30;64.29;100294.72;5041896;28;20057;-64
2022/10/26 10:59:33;;;;;;;7.85;7.25;;;;;;;21.19;64.71;100294.34;5047346;28;20068;-64
2022/10/26 11:02:21;;;;;;;11.27;8.23;;;;;;;21.03;64.91;100294.28;5046842;28;20041;-64
2022/10/26 11:05:04;;;;;;;9.65;8.88;;;;;;;21.06;65.30;100289.91;5048239;28;20419;-65
2022/10/26 11:07:39;;;;;;;9.00;8.20;;;;;;;21.11;65.29;100283.97;5049277;28;20056;-64
2022/10/26 11:10:14;;;;;;;8.90;8.13;;;;;;;21.10;64.96;100304.22;5045203;28;20057;-64
2022/10/26 11:12:51;;;;;;;8.93;6.50;;;;;;;20.77;66.63;100300.34;5045616;28;20053;-64
2022/10/26 11:15:23;;;;;;;8.18;6.60;;;;;;;20.57;66.67;100304.94;5044026;28;20056;-63
2022/10/26 11:17:59;;;;;;;10.25;7.90;;;;;;;20.58;67.43;100303.78;5047912;28;20049;-64
2022/10/26 11:20:28;;;;;;;7.43;6.78;;;;;;;20.61;67.02;100290.88;5045685;28;20068;-64
2022/10/26 11:23:00;;;;;;;7.03;6.20;;;;;;;20.59;67.37;100305.44;5044146;28;20588;-64
2022/10/26 11:25:41;;;;;;;6.68;6.10;;;;;;;20.67;67.29;100280.13;5048285;28;20095;-64
2022/10/26 11:28:47;;;;;;;7.03;6.63;;;;;;;20.64;67.11;100278.81;5052802;28;20060;-64
2022/10/26 11:31:20;;;;;;;7.00;6.43;;;;;;;20.80;67.36;100276.09;5042953;28;20070;-64
2022/10/26 11:34:07;;;;;;;7.13;6.70;;;;;;;20.85;66.91;100278.69;5050296;28;20049;-64
2022/10/26 11:36:36;;;;;;;7.10;6.60;;;;;;;20.99;66.83;100279.16;5044130;28;20053;-64
2022/10/26 11:39:22;;;;;;;9.98;7.00;;;;;;;21.03;66.88;100268.75;5049134;28;20053;-64
2022/10/26 11:41:51;;;;;;;7.85;7.18;;;;;;;21.13;66.79;100261.75;5049936;28;20052;-64
2022/10/26 11:44:27;;;;;;;7.47;6.88;;;;;;;21.11;66.33;100257.59;5052088;28;20044;-64
2022/10/26 11:47:00;;;;;;;6.97;6.47;;;;;;;21.18;66.32;100246.47;5045857;28;20057;-64